Time;durP1;ratioP1;P1;durP2;ratioP2;P2;SDS_P1;SDS_P2;PMS_P1;PMS_P2;Temp;Humidity;BMP_temperature;BMP_pressure;BME280_temperature;BME280_humidity;BME280_pressure;Samples;Min_cycle;Max_cycle;Signal;HPM_P1;HPM_P2
2022/04/08 00:00:07;;;;;;;28.43;18.87;;;;;;;5.07;91.15;98739.75;4992637;28;20497;-63
2022/04/08 00:02:36;;;;;;;29.50;18.33;;;;;;;5.05;90.73;98747.00;4992393;28;20030;-64
2022/04/08 00:05:02;;;;;;;;;;;;;;;5.07;91.25;98751.13;4993134;28;20041;-62
2022/04/08 00:07:28;;;;;;;28.50;18.93;;;;;;;5.02;90.79;98735.00;4995975;28;19917;-64
2022/04/08 00:09:56;;;;;;;29.67;20.47;;;;;;;4.97;90.84;98727.63;4995650;28;20398;-63
2022/04/08 00:12:21;;;;;;;29.13;19.43;;;;;;;4.96;91.53;98733.06;4995009;28;20143;-64
2022/04/08 00:14:48;;;;;;;29.10;19.80;;;;;;;4.95;91.33;98720.88;4992479;28;20560;-65
2022/04/08 00:17:14;;;;;;;26.30;19.73;;;;;;;4.91;90.43;98720.38;4991975;28;20039;-65
2022/04/08 00:19:39;;;;;;;29.23;18.90;;;;;;;4.95;90.69;98720.88;4992442;28;20273;-65
2022/04/08 00:22:05;;;;;;;27.47;19.70;;;;;;;4.93;91.30;98718.41;4993738;28;20030;-63
2022/04/08 00:24:31;;;;;;;28.83;20.00;;;;;;;4.97;91.10;98719.69;4993310;28;20409;-63
2022/04/08 00:26:57;;;;;;;26.87;18.33;;;;;;;4.97;90.68;98711.78;4993001;28;20269;-62
2022/04/08 00:29:22;;;;;;;29.23;19.77;;;;;;;5.00;91.26;98710.63;4992802;28;20042;-63
2022/04/08 00:31:50;;;;;;;29.43;19.97;;;;;;;5.00;91.03;98707.97;4992446;28;20116;-62
2022/04/08 00:34:16;;;;;;;27.40;18.23;;;;;;;4.94;90.54;98698.13;4994604;28;20034;-66
2022/04/08 00:36:41;;;;;;;28.30;18.73;;;;;;;4.74;89.77;98670.59;4995571;28;20309;-63
2022/04/08 00:39:11;;;;;;;31.60;20.27;;;;;;;4.91;90.71;98695.81;4996190;28;20412;-63
2022/04/08 00:41:37;;;;;;;31.67;21.00;;;;;;;4.88;90.66;98683.00;4995912;28;20096;-65
2022/04/08 00:44:03;;;;;;;30.93;19.97;;;;;;;4.84;90.55;98681.72;4996097;28;20261;-66
2022/04/08 00:46:29;;;;;;;30.03;21.43;;;;;;;4.89;90.73;98692.53;4996852;28;20293;-61
2022/04/08 00:48:54;;;;;;;38.13;24.17;;;;;;;4.88;90.60;98698.81;4996901;28;20268;-62
2022/04/08 00:51:21;;;;;;;38.20;24.87;;;;;;;4.88;90.84;98696.19;4995608;28;20097;-63
2022/04/08 00:53:48;;;;;;;44.07;26.07;;;;;;;4.87;90.08;98697.19;4995373;28;20046;-64
2022/04/08 00:56:15;;;;;;;55.33;31.00;;;;;;;4.86;90.56;98698.19;4995736;28;20289;-64
2022/04/08 00:58:40;;;;;;;54.73;30.80;;;;;;;4.84;90.54;98687.81;4995048;28;20265;-64
2022/04/08 01:01:06;;;;;;;66.53;31.93;;;;;;;4.83;90.42;98690.63;4995181;28;20269;-63
2022/04/08 01:03:31;;;;;;;61.93;30.80;;;;;;;4.80;90.58;98689.16;4995107;28;20383;-64
2022/04/08 01:05:57;;;;;;;61.67;28.37;;;;;;;4.78;90.17;98683.25;4995064;28;20133;-62
2022/04/08 01:08:23;;;;;;;62.17;31.30;;;;;;;4.81;90.58;98688.16;4977542;28;20042;-63
2022/04/08 01:10:54;;;;;;;52.80;29.35;;;;;;;4.82;90.41;98681.88;4995482;28;20043;-65
2022/04/08 01:13:20;;;;;;;56.25;32.10;;;;;;;4.77;90.31;98680.78;4995510;28;20073;-61
2022/04/08 01:15:46;;;;;;;62.30;32.20;;;;;;;4.72;90.62;98676.03;4996489;28;20050;-67
2022/04/08 01:18:11;;;;;;;60.17;32.40;;;;;;;4.63;90.52;98672.66;4999902;28;20556;-64
2022/04/08 01:20:37;;;;;;;61.80;30.37;;;;;;;4.63;91.29;98667.38;4995161;28;20042;-64
2022/04/08 01:23:04;;;;;;;59.50;31.50;;;;;;;4.61;91.42;98671.97;4994638;28;20584;-65
2022/04/08 01:25:30;;;;;;;63.37;30.53;;;;;;;4.60;91.50;98658.97;4995022;28;20126;-64
2022/04/08 01:27:55;;;;;;;51.77;28.40;;;;;;;4.50;91.02;98643.41;4994514;28;20896;-64
2022/04/08 01:30:21;;;;;;;56.90;30.97;;;;;;;4.62;91.29;98657.81;4994594;28;20129;-66
2022/04/08 01:32:47;;;;;;;63.03;31.53;;;;;;;4.59;91.00;98647.59;4994655;28;20482;-65
2022/04/08 01:35:13;;;;;;;53.03;29.37;;;;;;;4.59;91.70;98639.69;4994547;28;20042;-63
2022/04/08 01:37:38;;;;;;;53.40;28.50;;;;;;;4.60;91.32;98630.78;4994530;28;20038;-65
2022/04/08 01:40:05;;;;;;;54.70;28.23;;;;;;;4.63;91.58;98630.47;4977396;28;20284;-63
2022/04/08 01:42:30;;;;;;;54.73;29.40;;;;;;;4.67;91.78;98633.56;4994622;28;20430;-64
2022/04/08 01:44:56;;;;;;;55.00;28.90;;;;;;;4.65;91.69;98617.94;4993513;28;20293;-64
2022/04/08 01:47:22;;;;;;;53.07;28.80;;;;;;;4.67;91.61;98612.47;4994455;28;20030;-63
2022/04/08 01:49:48;;;;;;;50.20;28.67;;;;;;;4.65;91.74;98610.00;4994304;28;20046;-64
2022/04/08 01:52:13;;;;;;;55.10;28.37;;;;;;;4.63;91.69;98590.91;4994287;28;20308;-64
2022/04/08 01:54:39;;;;;;;51.70;27.87;;;;;;;4.69;91.79;98591.22;4994425;28;20045;-65
2022/04/08 01:57:05;;;;;;;59.77;29.87;;;;;;;4.71;91.64;98586.56;4994229;28;20129;-66
2022/04/08 01:59:30;;;;;;;58.67;29.63;;;;;;;4.70;92.16;98592.84;4994054;28;20352;-64
2022/04/08 02:01:59;;;;;;;57.23;30.83;;;;;;;4.70;92.28;98588.38;4994167;28;20042;-62
2022/04/08 02:04:25;;;;;;;;;;;;;;;4.75;92.13;98595.75;4994415;28;20045;-67
2022/04/08 02:06:51;;;;;;;49.40;25.37;;;;;;;4.71;92.34;98582.13;4994096;28;19917;-64
2022/04/08 02:09:16;;;;;;;49.73;24.37;;;;;;;4.72;92.39;98582.94;4994001;28;20473;-64
2022/04/08 02:12:07;;;;;;;42.03;24.93;;;;;;;4.75;92.68;98572.03;4993851;28;20121;-65
2022/04/08 02:14:33;;;;;;;52.67;28.67;;;;;;;4.73;92.43;98558.22;4993671;28;20281;-64
2022/04/08 02:16:58;;;;;;;49.27;27.00;;;;;;;4.72;92.13;98552.13;4993687;28;20038;-65
2022/04/08 02:19:24;;;;;;;53.67;26.83;;;;;;;4.80;92.74;98580.22;4993644;28;20425;-63
2022/04/08 02:21:49;;;;;;;54.50;25.90;;;;;;;4.79;92.32;98578.56;4993591;28;20045;-65
2022/04/08 02:24:15;;;;;;;52.40;25.03;;;;;;;4.82;92.49;98580.84;4993422;28;20038;-64
2022/04/08 02:26:41;;;;;;;49.67;26.07;;;;;;;4.83;92.58;98577.22;4993611;28;20057;-62
2022/04/08 02:29:07;;;;;;;50.20;24.80;;;;;;;4.84;92.48;98576.22;4993738;28;20035;-65
2022/04/08 02:31:32;;;;;;;45.27;25.33;;;;;;;4.85;92.68;98562.84;4993648;28;20035;-65
2022/04/08 02:33:58;;;;;;;46.00;23.70;;;;;;;4.84;91.95;98561.22;4994504;28;20027;-64
2022/04/08 02:36:23;;;;;;;53.60;24.70;;;;;;;4.83;92.32;98543.75;4993746;28;20034;-66
2022/04/08 02:38:49;;;;;;;49.40;24.90;;;;;;;4.85;92.36;98551.47;4993580;28;20125;-63
2022/04/08 02:41:14;;;;;;;53.03;25.77;;;;;;;4.80;92.39;98544.13;4993874;28;20054;-62
2022/04/08 02:43:40;;;;;;;50.07;25.23;;;;;;;4.83;92.87;98549.03;4988443;28;20046;-64
2022/04/08 02:46:05;;;;;;;45.93;22.87;;;;;;;4.78;92.36;98540.84;4982699;28;20557;-65
2022/04/08 02:48:31;;;;;;;47.47;23.17;;;;;;;4.81;92.74;98558.13;4975979;28;20042;-64
2022/04/08 02:50:56;;;;;;;46.87;23.03;;;;;;;4.81;93.00;98553.66;4975721;28;20092;-65
2022/04/08 02:53:21;;;;;;;39.83;22.20;;;;;;;4.79;93.34;98553.03;4992936;28;20134;-64
2022/04/08 02:55:47;;;;;;;43.83;21.63;;;;;;;4.80;93.15;98543.28;4993263;28;20042;-65
2022/04/08 02:58:12;;;;;;;45.70;23.17;;;;;;;4.79;92.89;98549.56;4984110;28;20041;-62
2022/04/08 03:00:40;;;;;;;39.27;21.30;;;;;;;4.79;92.94;98536.38;4973228;28;20027;-64
2022/04/08 03:03:05;;;;;;;39.10;22.17;;;;;;;4.76;92.70;98537.56;4973997;28;20030;-65
2022/04/08 03:05:31;;;;;;;49.53;23.73;;;;;;;4.58;93.03;98493.06;4955447;28;20701;-65
2022/04/08 03:07:56;;;;;;;41.67;21.53;;;;;;;4.80;93.16;98516.94;4973450;28;20047;-64
2022/04/08 03:10:22;;;;;;;42.33;22.87;;;;;;;4.82;93.14;98499.09;4973729;28;20088;-64
2022/04/08 03:12:51;;;;;;;43.10;21.33;;;;;;;4.84;93.57;98494.47;4967506;28;20110;-64
2022/04/08 03:15:16;;;;;;;38.22;19.65;;;;;;;4.79;93.04;98473.91;4992773;28;20055;-63
2022/04/08 03:17:42;;;;;;;38.93;18.43;;;;;;;4.84;93.41;98476.00;4992743;28;20053;-66
2022/04/08 03:20:08;;;;;;;37.63;18.77;;;;;;;4.84;93.82;98476.00;4992657;28;20050;-65
2022/04/08 03:22:34;;;;;;;34.43;18.23;;;;;;;4.89;93.33;98465.72;4992576;28;20138;-63
2022/04/08 03:24:59;;;;;;;34.73;19.77;;;;;;;4.91;93.19;98466.34;4975308;28;20392;-64
2022/04/08 03:27:26;;;;;;;32.57;17.37;;;;;;;4.93;93.11;98480.22;4992702;28;20502;-65
2022/04/08 03:29:51;;;;;;;30.50;17.83;;;;;;;4.96;92.59;98469.28;4974979;28;20572;-64
2022/04/08 03:32:17;;;;;;;28.50;17.20;;;;;;;4.95;93.14;98451.81;4992749;28;20446;-63
2022/04/08 03:34:42;;;;;;;25.20;16.00;;;;;;;5.00;92.96;98449.47;4992660;28;20038;-67
2022/04/08 03:37:08;;;;;;;29.40;17.07;;;;;;;5.05;92.47;98460.28;4992588;28;20041;-64
2022/04/08 03:39:33;;;;;;;23.80;15.87;;;;;;;5.08;93.05;98453.81;4975519;28;20405;-64
2022/04/08 03:42:00;;;;;;;25.47;16.97;;;;;;;5.05;92.40;98449.72;4992841;28;20413;-66
2022/04/08 03:44:25;;;;;;;24.63;16.30;;;;;;;5.07;91.92;98455.63;4992351;28;20041;-64
2022/04/08 03:46:51;;;;;;;28.13;16.67;;;;;;;5.12;92.52;98476.19;4992863;28;20084;-68
2022/04/08 03:49:16;;;;;;;27.40;18.37;;;;;;;5.12;92.09;98458.53;4975341;28;20378;-69
2022/04/08 03:51:46;;;;;;;27.23;17.30;;;;;;;5.13;91.89;98449.63;4992242;28;20076;-66
2022/04/08 03:54:13;;;;;;;26.97;18.17;;;;;;;5.10;92.48;98460.53;4993589;28;20042;-65
2022/04/08 03:56:41;;;;;;;26.23;16.73;;;;;;;5.05;92.10;98433.91;4993975;28;20337;-69
2022/04/08 03:59:08;;;;;;;27.33;17.63;;;;;;;5.09;92.24;98440.44;4993698;28;20274;-68
2022/04/08 04:01:34;;;;;;;27.90;18.13;;;;;;;5.01;92.64;98424.72;4994307;28;20049;-67
2022/04/08 04:03:59;;;;;;;25.53;16.23;;;;;;;5.08;92.61;98430.06;4976534;28;20653;-65
2022/04/08 04:06:25;;;;;;;27.10;19.00;;;;;;;5.14;92.22;98435.41;4977683;28;20601;-66
2022/04/08 04:08:50;;;;;;;27.77;16.77;;;;;;;5.14;92.44;98430.13;4997526;28;20487;-70
2022/04/08 04:11:16;;;;;;;35.43;19.67;;;;;;;5.17;92.18;98427.13;4997944;28;20048;-69
2022/04/08 04:13:43;;;;;;;27.63;17.23;;;;;;;5.16;92.29;98416.75;4996457;28;20058;-68
2022/04/08 04:16:10;;;;;;;32.27;19.60;;;;;;;5.19;92.22;98416.38;4996696;28;20065;-69
2022/04/08 04:18:36;;;;;;;29.60;17.80;;;;;;;5.19;92.65;98403.19;4978919;28;20320;-69
2022/04/08 04:21:02;;;;;;;29.23;17.37;;;;;;;5.23;92.27;98402.66;4996017;28;20792;-61
2022/04/08 04:23:27;;;;;;;30.53;18.27;;;;;;;5.27;92.22;98403.91;4995890;28;20270;-68
2022/04/08 04:25:53;;;;;;;27.27;16.43;;;;;;;5.33;92.04;98401.53;4995926;28;20308;-64
2022/04/08 04:28:19;;;;;;;28.87;18.90;;;;;;;5.32;92.32;98399.91;4995848;28;20481;-64
2022/04/08 04:30:44;;;;;;;28.83;17.13;;;;;;;5.33;92.72;98404.19;4995640;28;20522;-69
2022/04/08 04:33:10;;;;;;;29.73;19.67;;;;;;;5.28;92.60;98402.09;4995871;28;20030;-68
2022/04/08 04:35:36;;;;;;;31.13;19.60;;;;;;;5.28;92.73;98389.72;4996147;28;20044;-64
2022/04/08 04:38:02;;;;;;;28.13;18.40;;;;;;;5.36;93.28;98374.75;4996370;28;20313;-63
2022/04/08 04:40:28;;;;;;;34.20;19.50;;;;;;;5.44;92.88;98382.56;4995657;28;20034;-63
2022/04/08 04:42:55;;;;;;;31.80;20.47;;;;;;;5.47;92.95;98377.72;4995865;28;20168;-62
2022/04/08 04:45:24;;;;;;;31.67;19.70;;;;;;;5.47;92.20;98366.34;4995265;28;20672;-64
2022/04/08 04:47:50;;;;;;;32.95;19.65;;;;;;;5.49;92.59;98359.03;4993967;28;20312;-66
2022/04/08 04:50:16;;;;;;;33.93;22.33;;;;;;;5.48;93.17;98373.25;4979438;28;20080;-61
2022/04/08 04:52:42;;;;;;;35.10;22.80;;;;;;;5.32;92.84;98339.19;4976061;28;20041;-63
2022/04/08 04:55:11;;;;;;;34.13;20.30;;;;;;;5.50;92.90;98358.88;4958912;28;20291;-64
2022/04/08 04:57:36;;;;;;;;;;;;;;;5.59;92.09;98359.56;4976239;28;20061;-64
2022/04/08 05:00:03;;;;;;;34.23;19.90;;;;;;;5.55;92.47;98363.59;4975957;28;20389;-63
2022/04/08 05:02:29;;;;;;;30.40;21.20;;;;;;;5.52;92.30;98364.78;4995523;28;20116;-67
2022/04/08 05:04:54;;;;;;;32.57;21.73;;;;;;;5.56;92.12;98350.19;4995277;28;20388;-65
2022/04/08 05:07:20;;;;;;;34.17;20.40;;;;;;;5.62;92.21;98334.59;4977871;28;20490;-62
2022/04/08 05:09:45;;;;;;;36.03;21.47;;;;;;;5.61;92.27;98341.72;4977423;28;20038;-64
2022/04/08 05:12:11;;;;;;;35.87;22.37;;;;;;;5.63;92.79;98344.16;4995202;28;20125;-66
2022/04/08 05:14:36;;;;;;;31.47;21.13;;;;;;;5.62;91.80;98316.94;4976949;28;20054;-63
2022/04/08 05:17:03;;;;;;;32.67;21.07;;;;;;;5.69;92.57;98330.19;4994531;28;20430;-65
2022/04/08 05:19:29;;;;;;;29.67;19.63;;;;;;;5.72;92.28;98327.16;4993706;28;20085;-63
2022/04/08 05:21:54;;;;;;;31.83;20.40;;;;;;;5.77;92.40;98324.75;4994565;28;20749;-63
2022/04/08 05:24:24;;;;;;;27.57;19.90;;;;;;;5.74;91.75;98309.31;4975839;28;20042;-63
2022/04/08 05:27:11;;;;;;;30.00;21.07;;;;;;;5.79;91.87;98307.75;4976460;28;20038;-68
2022/04/08 05:29:36;;;;;;;28.33;21.37;;;;;;;5.84;91.46;98309.81;4976813;28;20031;-63
2022/04/08 05:32:09;;;;;;;29.30;19.50;;;;;;;5.91;91.31;98321.25;4994905;28;20041;-75
2022/04/08 05:34:35;;;;;;;29.37;20.40;;;;;;;5.94;90.75;98325.34;4989869;28;20046;-68
2022/04/08 05:37:01;;;;;;;27.27;21.07;;;;;;;5.79;91.44;98296.38;4959629;28;20292;-66
2022/04/08 05:39:27;;;;;;;27.60;19.27;;;;;;;5.93;91.18;98318.44;4992818;28;20084;-69
2022/04/08 05:41:52;;;;;;;29.13;17.90;;;;;;;5.90;91.03;98309.88;4989363;28;20042;-66
2022/04/08 05:44:17;;;;;;;24.97;18.63;;;;;;;5.96;90.35;98312.75;4957683;28;20038;-62
2022/04/08 05:46:44;;;;;;;23.97;18.07;;;;;;;6.00;91.06;98321.94;4974625;28;20089;-60
2022/04/08 05:49:09;;;;;;;21.80;16.50;;;;;;;5.99;90.29;98322.94;4974516;28;20077;-61
2022/04/08 05:51:35;;;;;;;24.63;17.70;;;;;;;6.00;90.28;98330.66;4974702;28;20297;-61
2022/04/08 05:54:00;;;;;;;23.97;17.47;;;;;;;6.02;90.66;98318.06;4974904;28;20038;-65
2022/04/08 05:56:26;;;;;;;21.53;17.43;;;;;;;6.04;90.14;98316.06;4974997;28;20098;-61
2022/04/08 05:58:51;;;;;;;24.27;18.30;;;;;;;6.13;89.47;98308.81;4975164;28;20495;-63
2022/04/08 06:01:17;;;;;;;19.30;15.53;;;;;;;6.24;89.38;98310.09;4974617;28;20038;-63
2022/04/08 06:03:42;;;;;;;24.77;17.77;;;;;;;6.38;88.63;98307.34;4974920;28;20089;-63
2022/04/08 06:06:08;;;;;;;21.00;16.67;;;;;;;6.39;88.46;98287.81;4974271;28;20096;-61
2022/04/08 06:08:33;;;;;;;21.77;15.00;;;;;;;6.42;88.62;98291.91;4974426;28;20041;-61
2022/04/08 06:10:59;;;;;;;17.17;14.70;;;;;;;6.35;88.99;98260.13;4957039;28;20047;-64
2022/04/08 06:13:26;;;;;;;16.23;13.73;;;;;;;6.50;88.03;98281.97;4975615;28;20059;-64
2022/04/08 06:15:52;;;;;;;15.87;13.43;;;;;;;6.57;88.18;98267.94;4957004;28;20043;-59
2022/04/08 06:18:19;;;;;;;16.47;13.33;;;;;;;6.61;87.92;98266.53;4974368;28;20410;-60
2022/04/08 06:20:44;;;;;;;19.07;12.70;;;;;;;6.57;87.86;98246.78;4975795;28;20042;-62
2022/04/08 06:23:10;;;;;;;24.43;16.30;;;;;;;6.49;87.38;98232.75;4974749;28;20442;-61
2022/04/08 06:25:35;;;;;;;22.23;16.53;;;;;;;6.59;87.72;98240.28;4957397;28;20070;-64
2022/04/08 06:28:04;;;;;;;14.60;13.03;;;;;;;6.62;86.90;98236.44;4974485;28;20038;-64
2022/04/08 06:30:31;;;;;;;15.23;13.00;;;;;;;6.57;88.00;98241.50;4974320;28;20410;-64
2022/04/08 06:32:57;;;;;;;15.63;13.77;;;;;;;6.53;87.89;98235.81;4974001;28;20070;-63
2022/04/08 06:35:22;;;;;;;12.67;11.37;;;;;;;6.59;87.59;98239.47;4974100;28;20502;-66
2022/04/08 06:37:48;;;;;;;17.17;11.37;;;;;;;6.67;87.69;98242.78;4974135;28;20438;-66
2022/04/08 06:40:14;;;;;;;13.03;10.43;;;;;;;6.53;87.46;98228.69;4978515;28;20042;-62
2022/04/08 06:42:40;;;;;;;11.43;10.30;;;;;;;6.75;87.38;98250.53;4965424;28;20496;-63
2022/04/08 06:45:07;;;;;;;11.63;9.77;;;;;;;6.78;87.57;98249.31;4950452;28;20049;-62
2022/04/08 06:47:33;;;;;;;11.43;9.63;;;;;;;6.77;87.67;98247.69;4967031;28;20064;-62
2022/04/08 06:49:59;;;;;;;14.67;11.63;;;;;;;6.70;87.81;98237.09;4983815;28;20062;-64
2022/04/08 06:52:24;;;;;;;11.67;10.47;;;;;;;6.65;87.75;98228.09;4981373;28;20035;-64
2022/04/08 06:54:50;;;;;;;11.70;10.43;;;;;;;6.66;88.65;98214.69;4985164;28;20092;-65
2022/04/08 06:57:16;;;;;;;10.60;9.60;;;;;;;6.80;89.47;98204.94;4987192;28;20467;-64
2022/04/08 06:59:42;;;;;;;11.63;10.40;;;;;;;6.97;89.34;98210.69;4964728;28;20517;-64
2022/04/08 07:02:08;;;;;;;10.97;9.87;;;;;;;7.03;88.33;98220.47;4981752;28;20038;-66
2022/04/08 07:04:35;;;;;;;11.20;9.27;;;;;;;7.03;88.24;98209.88;4981044;28;20442;-65
2022/04/08 07:07:04;;;;;;;15.27;10.97;;;;;;;7.01;88.48;98223.31;4988053;28;20042;-65
2022/04/08 07:09:32;;;;;;;;;;;;;;;7.04;88.10;98232.69;4991623;28;20501;-68
2022/04/08 07:11:58;;;;;;;11.95;9.63;;;;;;;7.00;87.85;98215.59;4974734;28;20471;-71
2022/04/08 07:14:23;;;;;;;14.10;10.07;;;;;;;6.71;87.90;98190.28;4991666;28;20054;-64
2022/04/08 07:16:49;;;;;;;12.53;9.70;;;;;;;6.84;89.07;98224.69;4991137;28;20089;-73
2022/04/08 07:19:14;;;;;;;13.10;10.10;;;;;;;6.92;88.72;98219.22;4991901;28;20038;-61
2022/04/08 07:21:40;;;;;;;11.77;9.20;;;;;;;6.88;89.05;98199.47;4993321;28;20061;-60
2022/04/08 07:24:06;;;;;;;11.83;9.43;;;;;;;7.04;88.67;98217.63;4993599;28;20221;-62
2022/04/08 07:26:31;;;;;;;12.10;9.67;;;;;;;7.04;88.34;98211.50;4992728;28;20042;-63
2022/04/08 07:28:57;;;;;;;12.97;10.40;;;;;;;7.14;88.85;98199.50;4993433;28;20050;-63
2022/04/08 07:31:22;;;;;;;10.50;9.37;;;;;;;7.36;88.56;98204.59;4992443;28;20076;-63
2022/04/08 07:33:48;;;;;;;9.83;8.53;;;;;;;7.56;87.54;98181.56;4992040;28;20504;-61
2022/04/08 07:36:14;;;;;;;9.73;8.73;;;;;;;7.84;86.28;98185.81;4992216;28;20032;-65
2022/04/08 07:38:40;;;;;;;11.00;8.77;;;;;;;7.99;85.52;98186.34;4992210;28;20536;-65
2022/04/08 07:41:05;;;;;;;10.47;8.23;;;;;;;8.18;85.03;98188.13;4992397;28;20038;-58
2022/04/08 07:43:31;;;;;;;9.43;8.33;;;;;;;8.27;83.90;98180.75;4979498;28;20035;-62
2022/04/08 07:45:56;;;;;;;9.10;8.10;;;;;;;8.27;84.14;98176.25;4986353;28;20459;-62
2022/04/08 07:48:22;;;;;;;22.97;13.83;;;;;;;8.31;83.87;98185.41;4988502;28;20545;-64
2022/04/08 07:50:47;;;;;;;10.90;9.17;;;;;;;8.30;83.42;98144.00;4979583;28;20454;-67
2022/04/08 07:53:13;;;;;;;7.23;6.53;;;;;;;8.47;82.47;98144.38;4979404;28;20687;-64
2022/04/08 07:55:39;;;;;;;8.57;6.73;;;;;;;8.75;82.38;98151.16;4979944;28;20049;-64
2022/04/08 07:58:05;;;;;;;6.63;6.00;;;;;;;8.86;82.12;98137.19;4967701;28;20034;-67
2022/04/08 08:00:34;;;;;;;5.90;5.40;;;;;;;9.02;81.47;98141.16;4979390;28;20039;-64
2022/04/08 08:02:59;;;;;;;6.78;6.10;;;;;;;9.17;80.74;98134.47;4984222;28;20105;-63
2022/04/08 08:05:26;;;;;;;8.23;6.70;;;;;;;9.33;79.73;98130.47;4998827;28;20046;-65
2022/04/08 08:07:58;;;;;;;6.63;5.93;;;;;;;9.47;79.59;98133.81;4998718;28;20557;-63
2022/04/08 08:10:30;;;;;;;6.17;5.50;;;;;;;9.44;79.43;98136.91;4985416;28;20417;-62
2022/04/08 08:12:57;;;;;;;7.10;6.40;;;;;;;9.42;79.11;98123.03;4979729;28;20046;-63
2022/04/08 08:15:26;;;;;;;6.00;5.40;;;;;;;9.40;79.36;98119.78;4978968;28;20054;-65
2022/04/08 08:17:53;;;;;;;5.63;4.83;;;;;;;9.26;79.16;98129.72;4985059;28;20486;-64
2022/04/08 08:20:20;;;;;;;8.17;6.90;;;;;;;9.06;80.55;98131.72;4998270;28;20053;-65
2022/04/08 08:22:46;;;;;;;7.23;6.50;;;;;;;8.95;80.99;98141.19;4998608;28;20097;-64
2022/04/08 08:25:12;;;;;;;8.37;6.07;;;;;;;8.94;81.04;98160.81;4998589;28;20125;-64
2022/04/08 08:27:38;;;;;;;8.33;6.63;;;;;;;9.05;80.89;98162.78;4998981;28;20049;-65
2022/04/08 08:30:05;;;;;;;7.17;5.90;;;;;;;9.17;80.01;98166.34;4998738;28;20566;-65
2022/04/08 08:32:30;;;;;;;9.57;5.90;;;;;;;9.29;79.86;98161.16;4980905;28;20394;-64
2022/04/08 08:34:56;;;;;;;6.43;5.73;;;;;;;9.29;79.13;98147.88;4998268;28;20049;-65
2022/04/08 08:37:21;;;;;;;9.03;5.73;;;;;;;9.23;79.66;98156.69;4998501;28;20086;-63
2022/04/08 08:39:46;;;;;;;8.77;5.50;;;;;;;9.11;79.68;98155.78;4998216;28;20045;-65
2022/04/08 08:42:13;;;;;;;6.60;5.80;;;;;;;9.17;80.09;98147.75;4998352;28;20034;-65
2022/04/08 08:44:39;;;;;;;7.50;6.23;;;;;;;9.36;79.37;98137.19;4987328;28;20042;-61
2022/04/08 08:47:11;;;;;;;7.93;6.70;;;;;;;9.51;79.38;98146.44;4993166;28;20046;-63
2022/04/08 08:49:38;;;;;;;8.53;6.30;;;;;;;9.60;78.24;98129.19;4998874;28;20042;-61
2022/04/08 08:52:07;;;;;;;7.80;6.00;;;;;;;9.71;78.34;98134.78;4998347;28;20085;-64
2022/04/08 08:54:33;;;;;;;10.13;7.80;;;;;;;9.74;78.23;98129.84;4997254;28;20050;-64
2022/04/08 08:57:02;;;;;;;8.33;7.40;;;;;;;9.69;77.99;98136.84;4995175;28;20034;-61
2022/04/08 08:59:29;;;;;;;6.77;6.07;;;;;;;9.61;77.93;98143.28;4995495;28;20121;-62
2022/04/08 09:02:02;;;;;;;7.03;6.33;;;;;;;9.49;77.92;98137.88;4994763;28;20038;-62
2022/04/08 09:04:31;;;;;;;7.97;6.10;;;;;;;9.38;79.06;98146.56;4961724;28;20045;-59
2022/04/08 09:06:58;;;;;;;9.00;5.80;;;;;;;9.24;79.14;98150.34;4995018;28;20030;-60
2022/04/08 09:09:31;;;;;;;7.83;5.77;;;;;;;9.18;79.99;98145.91;4994970;28;20038;-60
2022/04/08 09:12:08;;;;;;;8.33;6.10;;;;;;;9.14;79.59;98144.72;4995017;28;20038;-64
2022/04/08 09:14:35;;;;;;;7.87;7.10;;;;;;;9.13;79.70;98143.09;4995567;28;20057;-62
2022/04/08 09:17:01;;;;;;;8.13;7.30;;;;;;;9.14;80.34;98144.72;4994605;28;20038;-64
2022/04/08 09:19:33;;;;;;;7.27;6.57;;;;;;;9.11;80.52;98123.91;4994991;28;20129;-68
2022/04/08 09:21:59;;;;;;;7.57;6.67;;;;;;;9.26;79.49;98137.69;4977510;28;20038;-63
2022/04/08 09:24:25;;;;;;;7.93;7.13;;;;;;;9.35;79.02;98136.38;4994726;28;20133;-64
2022/04/08 09:26:52;;;;;;;7.83;6.80;;;;;;;9.36;78.81;98126.56;4976555;28;20117;-63
2022/04/08 09:29:19;;;;;;;11.37;7.90;;;;;;;9.34;78.83;98128.63;4986614;28;20085;-62
2022/04/08 09:31:49;;;;;;;8.23;7.37;;;;;;;9.33;79.06;98127.81;4988332;28;20030;-61
2022/04/08 09:34:16;;;;;;;7.50;6.73;;;;;;;9.22;78.81;98125.84;4982738;28;20402;-63
2022/04/08 09:36:44;;;;;;;8.27;7.20;;;;;;;9.20;79.17;98125.25;4985272;28;20069;-61
2022/04/08 09:39:10;;;;;;;8.25;7.28;;;;;;;9.19;79.76;98131.59;4967999;28;20380;-64
2022/04/08 09:41:43;;;;;;;8.23;7.10;;;;;;;9.21;79.20;98121.56;4985291;28;20129;-67
2022/04/08 09:44:13;;;;;;;9.93;7.23;;;;;;;9.17;79.10;98128.34;4976825;28;20082;-64
2022/04/08 09:46:39;;;;;;;8.73;7.60;;;;;;;9.14;79.71;98136.75;4996101;28;20100;-63
2022/04/08 09:49:06;;;;;;;8.97;7.07;;;;;;;9.16;79.18;98140.00;4976521;28;20050;-63
2022/04/08 09:51:37;;;;;;;8.50;7.57;;;;;;;9.13;79.62;98148.41;4957500;28;20049;-60
2022/04/08 09:54:05;;;;;;;7.80;6.90;;;;;;;9.09;79.71;98128.63;4974679;28;20137;-64
2022/04/08 09:56:31;;;;;;;9.52;7.93;;;;;;;9.10;79.23;98127.59;4974482;28;20406;-63
2022/04/08 09:59:08;;;;;;;11.10;8.37;;;;;;;9.05;79.50;98127.44;4976742;28;20034;-65
2022/04/08 10:01:38;;;;;;;10.57;9.03;;;;;;;8.99;79.29;98127.28;4974893;28;20046;-64
2022/04/08 10:04:04;;;;;;;9.57;8.17;;;;;;;9.06;78.95;98129.06;4974710;28;20035;-66
2022/04/08 10:06:30;;;;;;;11.97;9.27;;;;;;;9.02;78.89;98125.22;4973953;28;20042;-63
2022/04/08 10:08:57;;;;;;;10.10;8.07;;;;;;;9.02;79.08;98126.03;4976974;28;20042;-62
2022/04/08 10:11:45;;;;;;;10.70;7.87;;;;;;;8.98;79.20;98132.81;4974403;28;20043;-62
2022/04/08 10:14:19;;;;;;;10.77;8.30;;;;;;;8.98;78.82;98143.44;4974723;28;20421;-61
2022/04/08 10:16:52;;;;;;;10.27;8.60;;;;;;;8.96;79.05;98133.03;4973994;28;20062;-62
2022/04/08 10:19:18;;;;;;;11.73;8.70;;;;;;;8.97;79.19;98139.97;4974213;28;20097;-64
2022/04/08 10:21:51;;;;;;;8.57;7.67;;;;;;;8.93;79.32;98138.75;4982635;28;20128;-63
2022/04/08 10:24:22;;;;;;;9.73;8.50;;;;;;;8.88;80.10;98141.25;4993552;28;20039;-62
2022/04/08 10:27:09;;;;;;;13.37;8.70;;;;;;;8.83;79.74;98133.13;4988465;28;20039;-63
2022/04/08 10:29:35;;;;;;;8.80;7.80;;;;;;;8.79;80.05;98157.66;4974412;28;20509;-64
2022/04/08 10:32:12;;;;;;;12.23;8.90;;;;;;;8.73;80.56;98154.03;4974102;28;20035;-64
2022/04/08 10:34:37;;;;;;;11.93;8.77;;;;;;;8.72;80.20;98159.53;4981167;28;20409;-61
2022/04/08 10:37:15;;;;;;;20.17;10.87;;;;;;;8.67;80.89;98160.16;4993284;28;20129;-62
2022/04/08 10:39:42;;;;;;;12.77;9.27;;;;;;;8.66;80.13;98171.81;4981800;28;20469;-63
2022/04/08 10:42:20;;;;;;;10.30;8.83;;;;;;;8.74;80.73;98165.44;4982454;28;20038;-63
2022/04/08 10:44:46;;;;;;;23.58;13.27;;;;;;;8.78;80.17;98166.66;4985726;28;20034;-65
2022/04/08 10:47:16;;;;;;;13.87;9.17;;;;;;;8.81;80.82;98177.63;4983069;28;20038;-63
2022/04/08 10:49:50;;;;;;;10.57;8.07;;;;;;;8.82;80.59;98184.56;4992844;28;20031;-63
2022/04/08 10:52:18;;;;;;;9.37;8.30;;;;;;;8.78;81.33;98180.72;4990204;28;20042;-66
2022/04/08 10:54:44;;;;;;;12.77;10.02;;;;;;;8.88;80.45;98189.03;4973683;28;20035;-66
2022/04/08 10:57:10;;;;;;;11.27;8.70;;;;;;;8.96;80.33;98187.94;4973858;28;20584;-64
2022/04/08 10:59:36;;;;;;;11.93;8.13;;;;;;;9.07;79.25;98189.94;4956668;28;20445;-66
2022/04/08 11:02:05;;;;;;;11.70;8.10;;;;;;;9.15;78.95;98191.50;4973591;28;20046;-64
2022/04/08 11:04:32;;;;;;;14.90;8.73;;;;;;;9.12;79.19;98195.41;4978595;28;20387;-63
2022/04/08 11:07:05;;;;;;;8.10;6.97;;;;;;;9.08;78.58;98211.97;4956022;28;20399;-66
2022/04/08 11:09:31;;;;;;;9.30;7.73;;;;;;;9.06;78.13;98208.72;4973296;28;20034;-64
2022/04/08 11:11:59;;;;;;;8.37;7.43;;;;;;;9.05;78.65;98221.19;4973645;28;20046;-65
2022/04/08 11:14:27;;;;;;;12.50;8.10;;;;;;;9.03;78.22;98217.94;4945838;28;20129;-70
2022/04/08 11:16:53;;;;;;;10.75;7.13;;;;;;;8.97;78.20;98208.19;4973947;28;20073;-65
2022/04/08 11:19:22;;;;;;;10.73;6.50;;;;;;;8.85;78.92;98220.50;4972468;28;20486;-69
2022/04/08 11:21:48;;;;;;;7.73;6.70;;;;;;;8.75;79.05;98220.16;4940029;28;20069;-69
2022/04/08 11:24:18;;;;;;;8.40;7.60;;;;;;;8.69;79.90;98227.13;4956604;28;20027;-62
2022/04/08 11:26:49;;;;;;;9.97;6.77;;;;;;;8.54;80.20;98226.56;4973113;28;20048;-62
2022/04/08 11:29:22;;;;;;;8.57;6.97;;;;;;;8.57;80.63;98244.72;4973913;28;20041;-66